Time;durP1;ratioP1;P1;durP2;ratioP2;P2;SDS_P1;SDS_P2;PMS_P1;PMS_P2;Temp;Humidity;BMP_temperature;BMP_pressure;BME280_temperature;BME280_humidity;BME280_pressure;Samples;Min_cycle;Max_cycle;Signal;HPM_P1;HPM_P2
2024/03/09 00:01:17;;;;;;;18.10;12.60;;;4.50;63.50;;;;;;5156807;27;20309;-65
2024/03/09 00:03:46;;;;;;;20.20;12.30;;;4.50;63.40;;;;;;5150837;27;20222;-65
2024/03/09 00:06:15;;;;;;;20.52;11.68;;;4.50;62.90;;;;;;5135124;27;20240;-65
2024/03/09 00:08:48;;;;;;;22.17;14.00;;;4.50;63.10;;;;;;5135753;27;20227;-65
2024/03/09 00:11:16;;;;;;;22.95;14.00;;;4.40;63.50;;;;;;5136137;27;20540;-64
2024/03/09 00:13:45;;;;;;;25.33;13.07;;;4.40;63.90;;;;;;5149548;27;20247;-65
2024/03/09 00:16:14;;;;;;;20.80;13.68;;;4.50;64.40;;;;;;5136081;27;20195;-65
2024/03/09 00:18:43;;;;;;;19.30;13.65;;;4.50;64.10;;;;;;5135997;27;20196;-65
2024/03/09 00:21:12;;;;;;;22.42;12.93;;;4.50;63.80;;;;;;5135595;27;20223;-65
2024/03/09 00:23:50;;;;;;;23.02;12.15;;;4.40;63.10;;;;;;5135305;27;20184;-65
2024/03/09 00:26:22;;;;;;;19.05;12.88;;;4.40;63.00;;;;;;5135342;27;20178;-65
2024/03/09 00:29:04;;;;;;;21.13;12.93;;;4.40;63.40;;;;;;5135553;27;20180;-65
2024/03/09 00:31:36;;;;;;;22.00;13.77;;;4.40;63.40;;;;;;5135712;27;20180;-65
2024/03/09 00:34:05;;;;;;;31.00;15.18;;;4.40;63.50;;;;;;5142418;27;20175;-65
2024/03/09 00:36:33;;;;;;;25.60;15.93;;;4.30;63.30;;;;;;5156472;27;20251;-66
2024/03/09 00:39:03;;;;;;;28.38;15.63;;;4.30;63.50;;;;;;5156321;27;20225;-65
2024/03/09 00:41:35;;;;;;;33.97;15.52;;;4.30;63.40;;;;;;5156255;27;20225;-65
2024/03/09 00:44:07;;;;;;;22.98;14.45;;;4.30;63.40;;;;;;5149071;27;20183;-65
2024/03/09 00:46:36;;;;;;;23.70;13.43;;;4.30;63.10;;;;;;5135149;27;20642;-65
2024/03/09 00:49:03;;;;;;;23.85;13.02;;;4.30;62.50;;;;;;5135279;27;20547;-65
2024/03/09 00:51:31;;;;;;;25.17;13.93;;;4.20;62.70;;;;;;5135371;27;20187;-65
2024/03/09 00:54:01;;;;;;;18.95;12.40;;;4.20;63.30;;;;;;5134868;27;20685;-65
2024/03/09 00:56:29;;;;;;;23.02;12.23;;;4.10;63.50;;;;;;5135336;27;20236;-65
2024/03/09 00:58:59;;;;;;;22.95;14.75;;;4.10;63.50;;;;;;5135185;27;20235;-65
2024/03/09 01:01:29;;;;;;;20.40;11.70;;;4.00;63.20;;;;;;5135154;27;20666;-65
2024/03/09 01:04:01;;;;;;;22.45;13.60;;;4.00;64.30;;;;;;5134004;27;20179;-65
2024/03/09 01:06:32;;;;;;;21.58;12.82;;;4.00;63.80;;;;;;5134752;27;20176;-65
2024/03/09 01:09:02;;;;;;;22.70;14.32;;;3.90;64.50;;;;;;5135139;27;20176;-65
2024/03/09 01:11:31;;;;;;;21.05;12.27;;;3.90;64.60;;;;;;5134635;27;20241;-65
2024/03/09 01:14:00;;;;;;;17.70;12.02;;;3.90;64.30;;;;;;5139610;27;20533;-64
2024/03/09 01:16:29;;;;;;;20.92;13.10;;;3.90;64.50;;;;;;5155595;27;20230;-65
2024/03/09 01:18:58;;;;;;;24.42;13.60;;;3.90;64.20;;;;;;5155641;27;20609;-65
2024/03/09 01:21:39;;;;;;;24.60;13.25;;;3.90;64.70;;;;;;5155769;27;20199;-65
2024/03/09 01:24:11;;;;;;;23.52;12.18;;;3.90;64.30;;;;;;5134226;27;20182;-64
2024/03/09 01:26:45;;;;;;;22.27;13.45;;;3.90;63.50;;;;;;5134537;27;20176;-65
2024/03/09 01:29:24;;;;;;;20.90;12.70;;;3.90;63.70;;;;;;5134692;27;20252;-65
2024/03/09 01:31:52;;;;;;;17.27;12.90;;;3.80;64.10;;;;;;5134497;27;20239;-65
2024/03/09 01:34:21;;;;;;;19.90;13.02;;;3.80;64.70;;;;;;5147512;27;20218;-65
2024/03/09 01:36:53;;;;;;;20.88;13.18;;;3.80;64.50;;;;;;5134334;27;20637;-65
2024/03/09 01:39:20;;;;;;;24.27;14.50;;;3.80;64.90;;;;;;5150776;27;20179;-65
2024/03/09 01:41:47;;;;;;;23.42;13.60;;;3.80;64.90;;;;;;5154734;27;20598;-65
2024/03/09 01:44:18;;;;;;;23.67;14.43;;;3.80;65.30;;;;;;5148588;27;20184;-65
2024/03/09 01:46:48;;;;;;;22.85;13.90;;;3.80;65.00;;;;;;5134083;27;20188;-65
2024/03/09 01:49:17;;;;;;;26.70;14.43;;;3.80;65.20;;;;;;5134131;27;20184;-65
2024/03/09 01:51:52;;;;;;;21.25;12.93;;;3.80;65.60;;;;;;5134052;27;20688;-65
2024/03/09 01:54:23;;;;;;;25.17;13.43;;;3.80;65.60;;;;;;5134093;27;20194;-65
2024/03/09 01:56:51;;;;;;;19.25;13.55;;;3.90;66.10;;;;;;5134062;28;20229;-65
2024/03/09 01:59:23;;;;;;;22.00;13.68;;;3.90;66.00;;;;;;5133935;28;20188;-66
2024/03/09 02:01:51;;;;;;;18.50;12.70;;;4.00;65.70;;;;;;5134250;28;20228;-65
2024/03/09 02:04:20;;;;;;;21.15;12.25;;;4.00;64.60;;;;;;5134202;27;20211;-65
2024/03/09 02:06:51;;;;;;;20.67;12.60;;;4.00;65.00;;;;;;5134222;28;20195;-65
2024/03/09 02:09:25;;;;;;;24.15;13.68;;;4.00;63.60;;;;;;5134239;28;20244;-65
2024/03/09 02:12:00;;;;;;;18.30;12.50;;;3.90;63.80;;;;;;5133976;27;20177;-65
2024/03/09 02:14:29;;;;;;;27.27;15.10;;;3.90;65.20;;;;;;5136007;27;20191;-65
2024/03/09 02:16:58;;;;;;;23.20;14.80;;;3.80;66.10;;;;;;5138447;27;20184;-65
2024/03/09 02:19:27;;;;;;;22.42;14.75;;;3.80;66.90;;;;;;5138219;27;20214;-66
2024/03/09 02:21:55;;;;;;;21.30;12.68;;;3.80;67.90;;;;;;5137978;27;20282;-65
2024/03/09 02:24:26;;;;;;;21.00;13.15;;;3.90;68.40;;;;;;5142545;27;20192;-65
2024/03/09 02:26:55;;;;;;;24.52;13.25;;;4.00;67.70;;;;;;5147728;27;20172;-66
2024/03/09 02:29:23;;;;;;;22.02;13.25;;;4.00;67.60;;;;;;5138163;27;20187;-65
2024/03/09 02:31:56;;;;;;;21.65;13.55;;;4.00;67.20;;;;;;5136028;27;20188;-68
2024/03/09 02:34:23;;;;;;;20.85;14.35;;;4.00;66.70;;;;;;5117428;28;20203;-65
2024/03/09 02:36:50;;;;;;;28.55;14.20;;;4.00;66.50;;;;;;5117380;28;20241;-66
2024/03/09 02:39:23;;;;;;;23.58;12.98;;;4.10;66.70;;;;;;5117132;28;20602;-65
2024/03/09 02:41:58;;;;;;;23.65;14.40;;;4.00;66.20;;;;;;5134412;27;20215;-66
2024/03/09 02:44:27;;;;;;;22.05;13.82;;;4.00;66.50;;;;;;5137606;27;20187;-66
2024/03/09 02:47:00;;;;;;;27.95;17.65;;;4.00;67.10;;;;;;5137487;27;20191;-65
2024/03/09 02:49:32;;;;;;;22.13;13.18;;;4.00;67.10;;;;;;5136869;27;20184;-65
2024/03/09 02:52:04;;;;;;;17.65;12.45;;;4.00;67.40;;;;;;5137882;27;20186;-66
2024/03/09 02:54:31;;;;;;;24.48;13.38;;;4.00;66.90;;;;;;5137745;27;20196;-65
2024/03/09 02:57:00;;;;;;;26.92;14.23;;;3.90;67.00;;;;;;5137524;27;20256;-65
2024/03/09 02:59:28;;;;;;;22.75;14.23;;;3.90;67.00;;;;;;5137097;27;20233;-66
2024/03/09 03:01:55;;;;;;;20.40;13.25;;;3.90;67.10;;;;;;5137611;27;20188;-65
2024/03/09 03:04:29;;;;;;;17.85;13.30;;;3.90;67.20;;;;;;5137463;27;20233;-66
2024/03/09 03:06:57;;;;;;;24.25;13.10;;;3.90;67.30;;;;;;5137568;27;20221;-66
2024/03/09 03:09:30;;;;;;;27.98;14.00;;;3.90;67.60;;;;;;5136357;27;20219;-65
2024/03/09 03:11:59;;;;;;;24.33;13.73;;;3.90;67.90;;;;;;5136922;27;20233;-65
2024/03/09 03:14:31;;;;;;;22.23;13.70;;;3.90;67.90;;;;;;5136845;27;20211;-65
2024/03/09 03:17:00;;;;;;;26.45;15.13;;;4.00;67.90;;;;;;5137234;27;20186;-65
2024/03/09 03:19:29;;;;;;;23.48;14.23;;;4.00;68.00;;;;;;5136833;27;20649;-65
2024/03/09 03:21:59;;;;;;;24.77;13.98;;;3.90;67.60;;;;;;5137221;27;20190;-65
2024/03/09 03:24:31;;;;;;;22.58;13.70;;;3.90;67.60;;;;;;5137211;27;20184;-65
2024/03/09 03:27:00;;;;;;;23.27;13.98;;;3.90;68.00;;;;;;5135981;27;20181;-66
2024/03/09 03:29:27;;;;;;;24.35;14.90;;;3.90;67.90;;;;;;5136065;27;20191;-65
2024/03/09 03:31:55;;;;;;;22.25;14.93;;;3.80;68.20;;;;;;5136910;27;20195;-66
2024/03/09 03:34:24;;;;;;;25.90;14.52;;;3.90;69.40;;;;;;5136918;27;20298;-65
2024/03/09 03:36:57;;;;;;;21.33;14.65;;;3.80;68.40;;;;;;5136906;27;20550;-67
2024/03/09 03:39:27;;;;;;;22.25;14.55;;;3.80;68.70;;;;;;5136637;27;20579;-65
2024/03/09 03:42:12;;;;;;;17.80;12.50;;;3.80;69.00;;;;;;5136339;27;20219;-65
2024/03/09 03:44:40;;;;;;;29.65;15.40;;;3.80;69.00;;;;;;5136697;27;20180;-65
2024/03/09 03:47:09;;;;;;;24.33;13.30;;;3.80;68.90;;;;;;5136280;27;20195;-66
2024/03/09 03:49:36;;;;;;;21.10;12.88;;;3.80;68.80;;;;;;5136654;27;20248;-66
2024/03/09 03:52:06;;;;;;;22.02;14.75;;;3.80;68.60;;;;;;5136477;27;20191;-66
2024/03/09 03:54:38;;;;;;;22.27;14.40;;;3.90;68.00;;;;;;5136330;27;20215;-66
2024/03/09 03:57:05;;;;;;;23.55;14.63;;;3.80;67.10;;;;;;5136530;27;20172;-65
2024/03/09 03:59:34;;;;;;;21.85;14.55;;;3.70;67.00;;;;;;5135729;27;20211;-65
2024/03/09 04:02:06;;;;;;;20.85;13.55;;;3.70;67.60;;;;;;5136579;27;20245;-65
2024/03/09 04:04:59;;;;;;;24.20;13.80;;;3.70;67.10;;;;;;5136358;27;20180;-65
2024/03/09 04:07:26;;;;;;;19.92;12.65;;;3.60;66.80;;;;;;5136406;27;20184;-65
2024/03/09 04:09:54;;;;;;;19.65;12.65;;;3.60;67.60;;;;;;5136034;27;20192;-65
2024/03/09 04:12:26;;;;;;;22.27;13.18;;;3.60;67.20;;;;;;5135891;27;20184;-65
2024/03/09 04:14:58;;;;;;;24.17;13.25;;;3.50;66.60;;;;;;5135729;27;20207;-66
2024/03/09 04:17:26;;;;;;;20.88;11.45;;;3.40;66.20;;;;;;5136251;27;20181;-66
2024/03/09 04:19:54;;;;;;;19.00;11.38;;;3.40;66.40;;;;;;5136041;27;20188;-66
2024/03/09 04:22:24;;;;;;;24.13;12.35;;;3.40;66.40;;;;;;5145358;27;20630;-66
2024/03/09 04:24:56;;;;;;;17.95;11.40;;;3.40;66.30;;;;;;5156359;27;20645;-66
2024/03/09 04:27:31;;;;;;;18.63;11.98;;;3.30;65.90;;;;;;5156460;27;20176;-65
2024/03/09 04:30:01;;;;;;;20.30;12.98;;;3.30;65.10;;;;;;5148511;27;20221;-65
2024/03/09 04:32:30;;;;;;;21.70;13.25;;;3.20;64.80;;;;;;5135462;27;20230;-66
2024/03/09 04:35:05;;;;;;;20.23;12.70;;;3.20;65.70;;;;;;5135556;27;20218;-66
2024/03/09 04:37:34;;;;;;;24.27;15.15;;;3.20;66.50;;;;;;5135652;27;20180;-65
2024/03/09 04:40:14;;;;;;;20.90;13.25;;;3.20;66.70;;;;;;5148058;27;21910;-66
2024/03/09 04:42:49;;;;;;;25.50;12.98;;;3.10;66.90;;;;;;5135584;27;20186;-66
2024/03/09 04:45:24;;;;;;;23.08;13.45;;;3.10;67.50;;;;;;5135456;27;20192;-65
2024/03/09 04:47:52;;;;;;;22.83;14.80;;;3.10;67.50;;;;;;5135564;27;20589;-66
2024/03/09 04:50:21;;;;;;;26.98;15.50;;;3.10;67.80;;;;;;5134703;27;20205;-66
2024/03/09 04:52:50;;;;;;;20.25;13.52;;;3.10;68.20;;;;;;5135113;27;20201;-66
2024/03/09 04:55:18;;;;;;;22.27;13.98;;;3.10;68.50;;;;;;5135240;27;20212;-66
2024/03/09 04:57:48;;;;;;;26.77;15.60;;;3.20;68.60;;;;;;5135279;27;20185;-66
2024/03/09 05:00:18;;;;;;;27.33;16.17;;;3.20;68.20;;;;;;5134849;27;20597;-66
2024/03/09 05:02:45;;;;;;;20.10;13.70;;;3.10;67.60;;;;;;5135410;27;20194;-67
2024/03/09 05:05:14;;;;;;;22.70;15.20;;;3.10;67.60;;;;;;5134830;27;20280;-66
2024/03/09 05:08:08;;;;;;;22.48;13.38;;;3.10;67.40;;;;;;5134849;27;20697;-66
2024/03/09 05:10:40;;;;;;;21.38;13.30;;;3.10;68.20;;;;;;5134743;27;20175;-66
2024/03/09 05:13:07;;;;;;;22.25;13.35;;;3.10;68.50;;;;;;5134765;27;20202;-66
2024/03/09 05:15:35;;;;;;;28.02;14.98;;;3.10;68.40;;;;;;5138337;27;20190;-66
2024/03/09 05:18:06;;;;;;;24.55;14.60;;;3.10;68.60;;;;;;5155358;27;20195;-66
2024/03/09 05:20:34;;;;;;;27.13;15.88;;;3.10;68.60;;;;;;5143935;27;20175;-67
2024/03/09 05:23:03;;;;;;;28.05;13.65;;;3.10;68.50;;;;;;5134967;27;20191;-66
2024/03/09 05:25:32;;;;;;;20.52;13.20;;;3.00;68.40;;;;;;5134822;27;20202;-66
2024/03/09 05:27:59;;;;;;;23.85;14.02;;;3.00;68.60;;;;;;5134507;27;20191;-66
2024/03/09 05:30:28;;;;;;;25.50;15.85;;;2.90;68.50;;;;;;5134017;27;20184;-66
2024/03/09 05:32:58;;;;;;;29.35;15.23;;;2.90;68.80;;;;;;5134422;27;20188;-66
2024/03/09 05:35:28;;;;;;;21.50;14.18;;;2.80;68.40;;;;;;5134578;27;20302;-66
2024/03/09 05:38:00;;;;;;;21.85;13.70;;;2.80;68.60;;;;;;5135819;27;20274;-66
2024/03/09 05:40:30;;;;;;;20.52;13.63;;;2.80;68.80;;;;;;5145198;27;20215;-66
2024/03/09 05:43:01;;;;;;;20.10;12.98;;;2.70;69.10;;;;;;5134651;27;20194;-66
2024/03/09 05:45:31;;;;;;;25.23;13.95;;;2.70;69.80;;;;;;5134499;27;20176;-66
2024/03/09 05:47:59;;;;;;;21.20;13.07;;;2.70;70.00;;;;;;5133622;27;20268;-67
2024/03/09 05:50:32;;;;;;;23.92;13.93;;;2.80;69.30;;;;;;5133855;27;20176;-66
2024/03/09 05:53:00;;;;;;;21.50;12.20;;;2.80;68.90;;;;;;5133852;27;20556;-66
2024/03/09 05:55:30;;;;;;;24.65;15.10;;;2.80;68.80;;;;;;5133777;27;20211;-67
2024/03/09 05:58:22;;;;;;;22.75;15.25;;;2.80;69.00;;;;;;5134290;28;20240;-66
2024/03/09 06:00:50;;;;;;;23.88;13.88;;;2.70;68.80;;;;;;5133271;27;20184;-66
2024/03/09 06:03:18;;;;;;;20.65;12.77;;;2.70;69.00;;;;;;5133873;28;20668;-67
2024/03/09 06:05:50;;;;;;;24.00;13.18;;;2.60;69.30;;;;;;5133845;28;20227;-66
2024/03/09 06:08:22;;;;;;;24.20;13.43;;;2.70;69.70;;;;;;5134215;28;20190;-66
2024/03/09 06:10:50;;;;;;;24.40;12.50;;;2.70;69.80;;;;;;5134338;27;20187;-66
2024/03/09 06:13:22;;;;;;;17.70;13.05;;;2.70;69.10;;;;;;5134073;28;20198;-66
2024/03/09 06:15:50;;;;;;;21.58;12.70;;;2.70;68.60;;;;;;5133826;27;20199;-66
2024/03/09 06:18:22;;;;;;;23.40;13.18;;;2.70;68.50;;;;;;5134113;27;20244;-66
2024/03/09 06:20:51;;;;;;;20.98;12.27;;;2.70;68.40;;;;;;5133832;27;20594;-66
2024/03/09 06:23:24;;;;;;;24.08;13.25;;;2.70;68.60;;;;;;5133685;28;20641;-66
2024/03/09 06:26:00;;;;;;;22.75;13.00;;;2.80;69.30;;;;;;5153186;27;20180;-66
2024/03/09 06:28:27;;;;;;;23.70;14.60;;;2.90;69.00;;;;;;5154674;27;20208;-66
2024/03/09 06:30:58;;;;;;;20.58;13.35;;;3.00;68.60;;;;;;5142997;27;20220;-66
2024/03/09 06:33:27;;;;;;;22.20;14.32;;;2.90;68.90;;;;;;5133589;28;20187;-66
2024/03/09 06:35:56;;;;;;;21.98;13.52;;;3.00;70.00;;;;;;5133492;28;20280;-66
2024/03/09 06:38:27;;;;;;;23.80;12.68;;;3.10;70.20;;;;;;5136612;27;20185;-66
2024/03/09 06:40:56;;;;;;;21.77;13.32;;;3.20;70.00;;;;;;5143576;27;20630;-66
2024/03/09 06:43:35;;;;;;;25.00;14.55;;;3.30;68.80;;;;;;5133813;28;20199;-66
2024/03/09 06:46:08;;;;;;;21.27;12.68;;;3.40;68.70;;;;;;5133728;28;20263;-66
2024/03/09 06:48:36;;;;;;;26.35;13.48;;;3.50;68.20;;;;;;5133594;28;20180;-66
2024/03/09 06:51:06;;;;;;;22.38;12.35;;;3.60;67.90;;;;;;5133356;28;20179;-66
2024/03/09 06:53:33;;;;;;;21.02;13.80;;;3.70;67.90;;;;;;5148550;27;20540;-67
2024/03/09 06:56:03;;;;;;;21.88;12.90;;;3.70;67.20;;;;;;5143866;27;20246;-66
2024/03/09 06:58:30;;;;;;;22.73;14.32;;;3.70;68.00;;;;;;5133292;28;20708;-66
2024/03/09 07:01:06;;;;;;;24.38;15.05;;;3.90;69.00;;;;;;5134685;27;20608;-68
2024/03/09 07:03:40;;;;;;;22.60;13.65;;;4.10;69.40;;;;;;5137144;27;20286;-66
2024/03/09 07:06:12;;;;;;;29.27;19.20;;;4.30;69.60;;;;;;5137222;27;20189;-66
2024/03/09 07:08:39;;;;;;;34.20;20.02;;;4.50;70.10;;;;;;5137103;27;20188;-66
2024/03/09 07:11:08;;;;;;;24.27;17.10;;;5.00;69.40;;;;;;5136770;27;20176;-66
2024/03/09 07:13:38;;;;;;;31.05;17.23;;;5.40;68.90;;;;;;5136577;27;20183;-66
2024/03/09 07:16:05;;;;;;;26.48;16.83;;;5.80;66.60;;;;;;5136653;27;20723;-66
2024/03/09 07:18:38;;;;;;;22.77;14.50;;;6.30;67.90;;;;;;5145883;27;20541;-66
2024/03/09 07:21:10;;;;;;;25.27;15.43;;;7.00;68.20;;;;;;5144617;27;20173;-67
2024/03/09 07:23:43;;;;;;;22.60;15.32;;;7.80;66.70;;;;;;5136727;27;20589;-66
2024/03/09 07:26:15;;;;;;;26.15;18.70;;;8.70;63.40;;;;;;5136635;27;20184;-66
2024/03/09 07:28:43;;;;;;;24.48;15.45;;;9.40;58.90;;;;;;5135630;27;20622;-67
2024/03/09 07:31:12;;;;;;;20.58;14.85;;;10.20;57.80;;;;;;5137386;27;20187;-67
2024/03/09 07:33:46;;;;;;;23.23;16.48;;;11.10;56.10;;;;;;5136787;27;20196;-68
2024/03/09 07:36:13;;;;;;;24.00;16.33;;;11.90;56.10;;;;;;5136487;27;20208;-67
2024/03/09 07:38:42;;;;;;;23.05;17.48;;;12.50;53.30;;;;;;5136110;27;20180;-67
2024/03/09 07:41:09;;;;;;;26.93;17.07;;;13.20;52.50;;;;;;5135922;27;20237;-66
2024/03/09 07:43:38;;;;;;;21.10;15.17;;;13.90;49.80;;;;;;5136229;27;20798;-66
2024/03/09 07:46:07;;;;;;;22.13;14.93;;;14.50;47.00;;;;;;5136322;27;20426;-66
2024/03/09 07:48:41;;;;;;;20.37;16.80;;;14.90;44.70;;;;;;5136087;27;20527;-66
2024/03/09 07:51:10;;;;;;;24.37;15.17;;;15.40;46.10;;;;;;5136134;27;20459;-66
2024/03/09 07:53:52;;;;;;;20.60;15.43;;;16.00;43.90;;;;;;5136278;27;20796;-66
2024/03/09 07:56:19;;;;;;;19.80;15.20;;;16.40;42.70;;;;;;5135825;27;20461;-66
2024/03/09 07:58:50;;;;;;;20.57;14.47;;;16.90;40.60;;;;;;5135851;27;20500;-66
2024/03/09 08:01:19;;;;;;;20.87;15.07;;;17.40;39.00;;;;;;5136253;27;20419;-66
2024/03/09 08:03:48;;;;;;;19.03;14.80;;;17.80;38.70;;;;;;5135670;27;20435;-66
2024/03/09 08:06:18;;;;;;;20.30;14.50;;;18.30;38.60;;;;;;5136017;27;20459;-66
2024/03/09 08:08:50;;;;;;;19.73;14.50;;;18.70;36.60;;;;;;5136048;27;20435;-66
2024/03/09 08:11:17;;;;;;;22.47;16.10;;;19.10;35.50;;;;;;5135386;27;20911;-66
2024/03/09 08:13:50;;;;;;;17.23;13.97;;;19.50;34.90;;;;;;5135953;27;20440;-66
2024/03/09 08:16:23;;;;;;;20.97;14.33;;;19.90;35.00;;;;;;5135434;27;21035;-67
2024/03/09 08:18:51;;;;;;;18.40;14.27;;;20.30;33.90;;;;;;5135548;27;20418;-67
2024/03/09 08:21:20;;;;;;;22.20;15.00;;;20.70;33.50;;;;;;5138976;27;20861;-67
2024/03/09 08:23:48;;;;;;;20.20;15.13;;;21.00;33.90;;;;;;5154049;27;20489;-67
2024/03/09 08:26:21;;;;;;;18.50;14.27;;;21.40;33.30;;;;;;5155985;27;20437;-67
2024/03/09 08:28:48;;;;;;;16.73;13.60;;;21.80;31.10;;;;;;5138162;27;20816;-67
2024/03/09 08:31:16;;;;;;;15.67;12.93;;;21.90;31.60;;;;;;5135121;27;20469;-67
2024/03/09 08:33:43;;;;;;;17.40;13.17;;;22.20;31.00;;;;;;5134888;27;20437;-67
2024/03/09 08:36:12;;;;;;;18.33;14.50;;;22.50;31.00;;;;;;5134447;27;20473;-67
2024/03/09 08:38:42;;;;;;;20.70;14.07;;;22.90;29.90;;;;;;5134443;27;20437;-67
2024/03/09 08:41:10;;;;;;;17.07;13.47;;;23.10;29.40;;;;;;5143201;27;20456;-67
2024/03/09 08:43:38;;;;;;;17.93;14.10;;;23.30;29.50;;;;;;5155520;27;20463;-67
2024/03/09 08:46:07;;;;;;;19.03;13.60;;;23.60;29.20;;;;;;5155362;27;20516;-67
2024/03/09 08:48:34;;;;;;;16.50;13.50;;;23.90;28.60;;;;;;5140787;27;20449;-67
2024/03/09 08:51:02;;;;;;;17.17;13.30;;;24.20;28.30;;;;;;5134310;27;20984;-67
2024/03/09 08:53:29;;;;;;;15.07;12.13;;;24.50;27.20;;;;;;5134579;27;20434;-67
2024/03/09 08:55:58;;;;;;;14.70;12.20;;;24.60;27.00;;;;;;5134177;27;20526;-68
2024/03/09 08:58:27;;;;;;;13.40;11.40;;;24.90;26.80;;;;;;5134039;27;20426;-67
2024/03/09 09:00:56;;;;;;;13.83;9.77;;;25.20;27.10;;;;;;5134001;27;20434;-67
2024/03/09 09:03:26;;;;;;;13.77;10.37;;;25.50;26.30;;;;;;5134212;27;20441;-67
2024/03/09 09:05:53;;;;;;;12.90;11.20;;;25.80;26.40;;;;;;5134488;27;20482;-67
2024/03/09 09:08:25;;;;;;;12.90;9.63;;;26.10;26.00;;;;;;5134136;27;20453;-67
2024/03/09 09:10:53;;;;;;;15.37;9.70;;;26.20;24.90;;;;;;5134421;27;20458;-67
2024/03/09 09:13:22;;;;;;;15.20;12.00;;;26.40;24.00;;;;;;5134381;27;20433;-67
2024/03/09 09:15:51;;;;;;;14.63;11.53;;;26.40;24.70;;;;;;5133602;27;20525;-67
2024/03/09 09:18:18;;;;;;;12.40;11.07;;;26.70;24.30;;;;;;5133707;27;20425;-67
2024/03/09 09:20:48;;;;;;;14.00;12.50;;;27.00;24.10;;;;;;5133304;27;20433;-67
2024/03/09 09:23:15;;;;;;;11.73;10.30;;;27.30;23.00;;;;;;5133280;27;20476;-67
2024/03/09 09:25:42;;;;;;;11.90;9.80;;;27.30;23.50;;;;;;5129697;27;20526;-68
2024/03/09 09:28:09;;;;;;;24.60;19.90;;;27.40;24.10;;;;;;5131600;27;20430;-67
2024/03/09 09:30:44;;;;;;;13.57;11.37;;;27.50;22.70;;;;;;5133663;27;20442;-67
2024/03/09 09:33:13;;;;;;;13.37;11.70;;;27.60;22.10;;;;;;5133426;27;20425;-67
2024/03/09 09:35:46;;;;;;;15.07;13.47;;;27.60;22.60;;;;;;5133424;27;20895;-67
2024/03/09 09:38:17;;;;;;;11.17;10.00;;;27.70;21.90;;;;;;5133879;27;20509;-67
2024/03/09 09:40:45;;;;;;;14.13;9.90;;;28.00;22.80;;;;;;5121627;27;20519;-67
2024/03/09 09:43:15;;;;;;;10.10;8.53;;;28.40;22.00;;;;;;5116415;27;20429;-67
2024/03/09 09:45:45;;;;;;;11.40;9.80;;;28.60;21.10;;;;;;5131122;27;20437;-67
2024/03/09 09:48:14;;;;;;;12.73;9.73;;;28.70;21.00;;;;;;5133543;27;20490;-68
2024/03/09 09:50:44;;;;;;;11.10;8.67;;;28.90;21.80;;;;;;5141442;27;20431;-67
2024/03/09 09:53:14;;;;;;;11.07;9.97;;;29.10;21.00;;;;;;5154058;27;20824;-68
2024/03/09 09:55:46;;;;;;;12.50;10.27;;;29.10;20.80;;;;;;5135981;27;20464;-68
2024/03/09 09:58:15;;;;;;;16.17;9.80;;;29.20;20.60;;;;;;5133639;28;20421;-67
2024/03/09 10:00:49;;;;;;;13.10;10.40;;;29.30;20.90;;;;;;5133318;27;20425;-68
2024/03/09 10:03:17;;;;;;;13.20;10.47;;;29.50;20.50;;;;;;5133190;27;20426;-68
2024/03/09 10:05:46;;;;;;;12.50;10.80;;;29.80;21.70;;;;;;5133204;28;20846;-68
2024/03/09 10:08:14;;;;;;;11.87;10.27;;;30.20;20.50;;;;;;5133189;28;20434;-67
2024/03/09 10:10:47;;;;;;;11.20;10.00;;;30.50;20.90;;;;;;5132693;27;20425;-68
2024/03/09 10:13:15;;;;;;;13.70;11.27;;;30.70;20.60;;;;;;5134176;27;20449;-68
2024/03/09 10:15:51;;;;;;;12.10;10.70;;;30.80;20.30;;;;;;5147642;27;20484;-67
2024/03/09 10:18:19;;;;;;;15.43;11.47;;;31.00;20.30;;;;;;5132726;28;20501;-68
2024/03/09 10:20:46;;;;;;;12.37;10.80;;;31.10;20.30;;;;;;5131091;27;20478;-68
2024/03/09 10:23:13;;;;;;;12.40;11.10;;;31.20;20.30;;;;;;5128419;27;20417;-66
2024/03/09 10:25:41;;;;;;;11.83;10.60;;;31.60;20.30;;;;;;5128061;28;20463;-66
2024/03/09 10:28:10;;;;;;;11.87;10.60;;;31.80;20.00;;;;;;5133047;28;20482;-66
2024/03/09 10:30:41;;;;;;;12.47;11.00;;;32.10;19.90;;;;;;5132623;27;21011;-67
2024/03/09 10:33:16;;;;;;;12.77;10.53;;;32.30;19.80;;;;;;5121301;28;20430;-67
2024/03/09 10:36:08;;;;;;;11.73;10.53;;;32.50;19.90;;;;;;5134110;27;20499;-67
2024/03/09 10:38:38;;;;;;;13.23;10.40;;;32.70;19.40;;;;;;5133304;27;20786;-67
2024/03/09 10:41:12;;;;;;;13.80;10.90;;;32.90;19.50;;;;;;5136266;27;20506;-67
2024/03/09 10:43:42;;;;;;;12.83;11.43;;;33.10;19.30;;;;;;5130743;27;20926;-67
2024/03/09 10:46:37;;;;;;;12.10;9.43;;;33.20;18.90;;;;;;5115124;28;20811;-66
2024/03/09 10:49:49;;;;;;;11.83;10.30;;;33.40;18.80;;;;;;5114751;28;20467;-66
2024/03/09 10:52:22;;;;;;;12.60;10.90;;;33.50;19.30;;;;;;5115180;28;20434;-67
2024/03/09 10:55:01;;;;;;;10.70;9.60;;;33.60;18.90;;;;;;5116007;28;20450;-68
2024/03/09 10:57:31;;;;;;;11.27;9.50;;;33.60;19.00;;;;;;5116310;28;20422;-68
2024/03/09 11:00:04;;;;;;;5.50;4.10;;;33.60;18.60;;;;;;5114508;28;20788;-68
2024/03/09 11:02:35;;;;;;;5.50;4.53;;;33.60;16.20;;;;;;5108511;28;20526;-68
2024/03/09 11:05:09;;;;;;;4.60;3.70;;;33.80;15.60;;;;;;5109086;28;20423;-67
2024/03/09 11:07:42;;;;;;;6.23;5.63;;;34.00;15.60;;;;;;5123749;27;20912;-68
2024/03/09 11:10:13;;;;;;;2.50;0.93;;;34.00;15.10;;;;;;5115635;28;20854;-68
2024/03/09 11:12:40;;;;;;;2.83;0.70;;;33.90;11.90;;;;;;5118534;27;20503;-67
2024/03/09 11:15:08;;;;;;;1.90;0.60;;;33.60;11.10;;;;;;5135690;27;20433;-67
2024/03/09 11:17:36;;;;;;;1.80;0.50;;;33.50;12.40;;;;;;5115781;27;20513;-67
2024/03/09 11:20:12;;;;;;;1.90;0.70;;;33.20;11.10;;;;;;5115456;27;20422;-67
2024/03/09 11:22:40;;;;;;;2.00;0.80;;;32.90;10.90;;;;;;5114964;28;20422;-67
2024/03/09 11:25:11;;;;;;;1.90;0.60;;;32.50;10.70;;;;;;5127746;27;20429;-67
2024/03/09 11:27:39;;;;;;;1.90;0.67;;;32.20;11.40;;;;;;5119468;27;20437;-67
2024/03/09 11:30:08;;;;;;;2.23;0.63;;;32.20;11.80;;;;;;5115149;27;20770;-67
2024/03/09 11:32:36;;;;;;;2.20;0.60;;;32.00;10.50;;;;;;5113479;28;20440;-68
2024/03/09 11:35:31;;;;;;;4.70;0.60;;;31.50;11.30;;;;;;5123473;27;20884;-67
2024/03/09 11:38:00;;;;;;;2.00;0.63;;;31.10;11.00;;;;;;5095215;28;20438;-67
2024/03/09 11:40:28;;;;;;;2.10;0.80;;;30.70;11.40;;;;;;5095113;28;20816;-67
2024/03/09 11:43:04;;;;;;;4.10;0.60;;;30.40;11.40;;;;;;5094993;28;20831;-67
2024/03/09 11:45:36;;;;;;;2.67;0.70;;;30.40;12.00;;;;;;5112097;27;20513;-67
2024/03/09 11:48:08;;;;;;;1.83;0.60;;;30.60;11.10;;;;;;5114425;28;20483;-67
2024/03/09 11:50:39;;;;;;;1.83;0.60;;;30.60;11.50;;;;;;5114402;28;20928;-67
2024/03/09 11:53:14;;;;;;;2.20;0.87;;;30.30;11.10;;;;;;5114608;27;20431;-67
2024/03/09 11:56:01;;;;;;;1.80;0.50;;;30.10;11.60;;;;;;5112954;28;20519;-67
2024/03/09 11:58:37;;;;;;;1.80;0.60;;;30.40;10.90;;;;;;5114310;28;20418;-67
2024/03/09 12:01:08;;;;;;;1.90;0.70;;;30.50;10.70;;;;;;5114639;28;20418;-67
2024/03/09 12:03:36;;;;;;;1.90;0.60;;;30.30;11.20;;;;;;5114715;28;20429;-67
2024/03/09 12:06:11;;;;;;;2.00;0.60;;;30.20;12.20;;;;;;5123168;27;20442;-67
2024/03/09 12:08:40;;;;;;;1.80;0.57;;;30.40;12.20;;;;;;5114376;27;20418;-67
2024/03/09 12:11:07;;;;;;;1.70;0.50;;;30.30;11.60;;;;;;5114430;27;20431;-68
2024/03/09 12:13:55;;;;;;;1.80;0.60;;;30.10;11.00;;;;;;5113330;28;20434;-67
2024/03/09 12:16:34;;;;;;;1.87;0.67;;;29.80;10.90;;;;;;5113563;28;20492;-68
2024/03/09 12:19:12;;;;;;;1.90;0.60;;;29.70;11.80;;;;;;5114010;28;20475;-68
2024/03/09 12:21:45;;;;;;;1.73;0.50;;;29.80;11.90;;;;;;5112251;27;20501;-67
2024/03/09 12:24:23;;;;;;;2.10;0.70;;;29.60;11.80;;;;;;5115180;27;20918;-67
2024/03/09 12:26:57;;;;;;;1.80;0.60;;;29.60;11.40;;;;;;5127029;27;20488;-68
2024/03/09 12:29:32;;;;;;;1.90;0.70;;;29.60;11.90;;;;;;5112797;28;20434;-67
2024/03/09 12:32:05;;;;;;;2.30;0.63;;;29.80;12.70;;;;;;5103327;28;20430;-68
2024/03/09 12:34:32;;;;;;;2.30;0.60;;;29.90;12.10;;;;;;5093888;28;20480;-68
2024/03/09 12:37:01;;;;;;;2.30;0.80;;;29.90;11.80;;;;;;5098061;28;20481;-68
2024/03/09 12:39:29;;;;;;;2.00;0.60;;;30.00;11.80;;;;;;5114162;27;20449;-67
2024/03/09 12:41:57;;;;;;;1.80;0.50;;;30.00;12.50;;;;;;5135011;27;20571;-67
2024/03/09 12:44:27;;;;;;;1.90;0.60;;;29.90;12.00;;;;;;5134224;27;20490;-68
2024/03/09 12:47:00;;;;;;;2.10;0.90;;;29.70;12.40;;;;;;5134683;27;20934;-68
2024/03/09 12:49:33;;;;;;;1.70;0.50;;;29.50;12.40;;;;;;5126757;27;20494;-67
2024/03/09 12:52:02;;;;;;;1.70;0.50;;;29.30;11.80;;;;;;5114178;28;20959;-67
2024/03/09 12:54:30;;;;;;;1.90;0.60;;;29.00;11.90;;;;;;5117787;27;20487;-67